Time;durP1;ratioP1;P1;durP2;ratioP2;P2;SDS_P1;SDS_P2;PMS_P1;PMS_P2;Temp;Humidity;BMP_temperature;BMP_pressure;BME280_temperature;BME280_humidity;BME280_pressure;Samples;Min_cycle;Max_cycle;Signal;HPM_P1;HPM_P2
2023/11/16 00:01:49;;;;;;;;;;;19.90;67.80;;;;;;5003329;28;1342;-66
2023/11/16 00:04:15;;;;;;;;;;;19.80;67.80;;;;;;5004154;28;1365;-66
2023/11/16 00:06:40;;;;;;;;;;;19.80;67.80;;;;;;5005063;28;1253;-66
2023/11/16 00:09:06;;;;;;;;;;;19.80;67.80;;;;;;5005408;28;1363;-66
2023/11/16 00:11:31;;;;;;;;;;;19.80;67.80;;;;;;5002982;28;1350;-67
2023/11/16 00:13:57;;;;;;;;;;;19.80;67.80;;;;;;5003980;28;1987;-66
2023/11/16 00:16:22;;;;;;;;;;;19.80;67.80;;;;;;5004225;28;1413;-66
2023/11/16 00:18:49;;;;;;;;;;;19.80;67.90;;;;;;5001694;28;1548;-66
2023/11/16 00:21:15;;;;;;;;;;;19.80;68.70;;;;;;5000761;28;1287;-66
2023/11/16 00:23:41;;;;;;;;;;;19.80;67.90;;;;;;5005820;28;1720;-66
2023/11/16 00:26:10;;;;;;;;;;;19.80;67.90;;;;;;4999013;28;1524;-67
2023/11/16 00:28:35;;;;;;;;;;;19.80;67.90;;;;;;5010529;28;1335;-67
2023/11/16 00:31:01;;;;;;;;;;;19.80;67.90;;;;;;5001619;28;1430;-67
2023/11/16 00:33:26;;;;;;;;;;;19.80;67.90;;;;;;5001981;28;1955;-66
2023/11/16 00:35:55;;;;;;;;;;;19.80;67.90;;;;;;5000873;28;1441;-66
2023/11/16 00:38:21;;;;;;;;;;;19.80;67.90;;;;;;5004670;28;1349;-66
2023/11/16 00:40:47;;;;;;;;;;;19.80;68.00;;;;;;5001717;28;1374;-66
2023/11/16 00:43:13;;;;;;;;;;;19.80;68.00;;;;;;5002504;28;1393;-66
2023/11/16 00:45:39;;;;;;;;;;;19.80;68.00;;;;;;5000985;28;1473;-67
2023/11/16 00:48:04;;;;;;;;;;;19.80;68.00;;;;;;5000530;28;1390;-66
2023/11/16 00:50:30;;;;;;;;;;;19.80;68.00;;;;;;5004112;28;1491;-67
2023/11/16 00:52:56;;;;;;;;;;;19.80;68.00;;;;;;5004597;28;1942;-66
2023/11/16 00:55:21;;;;;;;;;;;19.80;68.10;;;;;;5001429;28;1263;-66
2023/11/16 00:57:47;;;;;;;;;;;19.80;68.00;;;;;;5002407;28;1356;-66
2023/11/16 01:00:14;;;;;;;;;;;19.80;68.10;;;;;;5001697;28;1467;-66
2023/11/16 01:02:40;;;;;;;;;;;19.80;68.10;;;;;;5018384;28;1347;-67
2023/11/16 01:05:06;;;;;;;;;;;19.80;68.10;;;;;;5001368;28;1437;-67
2023/11/16 01:07:31;;;;;;;;;;;19.80;68.10;;;;;;5003439;28;1428;-66
2023/11/16 01:10:03;;;;;;;;;;;19.80;68.10;;;;;;5001043;28;1279;-67
2023/11/16 01:12:29;;;;;;;;;;;19.80;68.10;;;;;;5005174;28;1977;-66
2023/11/16 01:14:59;;;;;;;;;;;19.80;68.10;;;;;;5002064;28;1479;-66
2023/11/16 01:17:31;;;;;;;;;;;19.80;68.10;;;;;;5001706;28;1213;-67
2023/11/16 01:20:04;;;;;;;;;;;19.80;68.10;;;;;;5004628;28;1272;-67
2023/11/16 01:22:30;;;;;;;;;;;19.70;68.10;;;;;;5002180;28;1397;-67
2023/11/16 01:24:55;;;;;;;;;;;19.70;68.10;;;;;;5004158;28;1442;-67
2023/11/16 01:27:29;;;;;;;;;;;19.70;68.90;;;;;;5002305;28;1272;-66
2023/11/16 01:29:54;;;;;;;;;;;19.70;68.10;;;;;;5003429;28;1342;-67
2023/11/16 01:32:20;;;;;;;;;;;19.70;68.10;;;;;;5001028;28;1910;-67
2023/11/16 01:34:46;;;;;;;;;;;19.70;68.10;;;;;;5002179;28;1446;-66
2023/11/16 01:37:11;;;;;;;;;;;19.80;68.20;;;;;;5000759;28;1488;-66
2023/11/16 01:39:39;;;;;;;;;;;19.70;68.10;;;;;;5006108;28;1481;-66
2023/11/16 01:42:05;;;;;;;;;;;19.70;68.10;;;;;;5006973;28;1424;-67
2023/11/16 01:44:30;;;;;;;;;;;19.70;68.10;;;;;;5003917;28;1256;-66
2023/11/16 01:46:56;;;;;;;;;;;19.70;68.10;;;;;;5000567;28;1448;-67
2023/11/16 01:49:22;;;;;;;;;;;19.70;68.10;;;;;;4998295;28;1473;-67
2023/11/16 01:51:53;;;;;;;;;;;19.70;68.20;;;;;;4999771;28;1902;-67
2023/11/16 01:54:20;;;;;;;;;;;19.70;68.20;;;;;;5001620;28;1549;-67
2023/11/16 01:56:47;;;;;;;;;;;19.70;68.20;;;;;;5000441;28;1493;-67
2023/11/16 01:59:12;;;;;;;;;;;19.70;68.20;;;;;;5001321;28;1351;-67
2023/11/16 02:01:38;;;;;;;;;;;19.70;68.20;;;;;;5004940;28;1339;-66
2023/11/16 02:04:04;;;;;;;;;;;19.70;68.20;;;;;;5000723;28;1307;-66
2023/11/16 02:06:32;;;;;;;;;;;19.70;68.20;;;;;;5001249;28;1638;-66
2023/11/16 02:08:58;;;;;;;;;;;19.70;68.20;;;;;;5000230;28;1305;-66
2023/11/16 02:11:23;;;;;;;;;;;19.70;68.20;;;;;;5004906;28;1472;-67
2023/11/16 02:13:49;;;;;;;;;;;19.70;68.20;;;;;;5015595;28;1992;-66
2023/11/16 02:16:15;;;;;;;;;;;19.70;68.20;;;;;;5003891;28;1545;-66
2023/11/16 02:18:40;;;;;;;;;;;19.70;68.20;;;;;;5001272;28;1131;-66
2023/11/16 02:21:06;;;;;;;;;;;19.70;68.30;;;;;;5003017;28;1181;-67
2023/11/16 02:23:32;;;;;;;;;;;19.70;68.20;;;;;;5002012;28;1265;-67
2023/11/16 02:25:57;;;;;;;;;;;19.70;68.30;;;;;;5004728;28;1257;-67
2023/11/16 02:28:23;;;;;;;;;;;19.70;68.30;;;;;;5003120;28;1238;-67
2023/11/16 02:30:49;;;;;;;;;;;19.70;68.30;;;;;;4999062;28;1331;-67
2023/11/16 02:33:14;;;;;;;;;;;19.70;68.30;;;;;;5002029;28;1907;-67
2023/11/16 02:35:40;;;;;;;;;;;19.70;68.30;;;;;;5004217;28;1392;-67
2023/11/16 02:38:06;;;;;;;;;;;19.70;68.30;;;;;;4997493;28;1614;-67
2023/11/16 02:40:31;;;;;;;;;;;19.70;68.30;;;;;;5002049;28;1138;-67
2023/11/16 02:42:57;;;;;;;;;;;19.70;68.30;;;;;;5003035;28;1425;-67
2023/11/16 02:45:26;;;;;;;;;;;19.70;68.30;;;;;;4996435;28;1270;-67
2023/11/16 02:47:54;;;;;;;;;;;19.70;68.40;;;;;;4996139;28;1432;-67
2023/11/16 02:50:20;;;;;;;;;;;19.70;68.30;;;;;;4997524;28;1256;-67
2023/11/16 02:52:45;;;;;;;;;;;19.70;68.30;;;;;;5001711;28;1915;-67
2023/11/16 02:55:11;;;;;;;;;;;19.70;68.40;;;;;;5001032;28;1378;-67
2023/11/16 02:57:39;;;;;;;;;;;19.70;68.40;;;;;;5004534;28;1292;-67
2023/11/16 03:00:06;;;;;;;;;;;19.70;68.30;;;;;;5002290;28;1404;-67
2023/11/16 03:02:32;;;;;;;;;;;19.70;68.40;;;;;;5017132;28;1316;-67
2023/11/16 03:04:57;;;;;;;;;;;19.70;68.40;;;;;;5002051;28;1375;-67
2023/11/16 03:07:23;;;;;;;;;;;19.70;68.40;;;;;;4999006;28;1370;-67
2023/11/16 03:09:48;;;;;;;;;;;19.70;68.40;;;;;;5001001;28;1333;-67
2023/11/16 03:12:14;;;;;;;;;;;19.70;68.40;;;;;;5003189;28;1966;-67
2023/11/16 03:14:40;;;;;;;;;;;19.70;68.40;;;;;;5001954;28;1303;-67
2023/11/16 03:17:06;;;;;;;;;;;19.70;68.40;;;;;;5000962;28;1536;-67
2023/11/16 03:19:33;;;;;;;;;;;19.70;68.40;;;;;;5003100;28;1365;-66
2023/11/16 03:22:00;;;;;;;;;;;19.70;68.40;;;;;;5004036;28;1339;-66
2023/11/16 03:24:25;;;;;;;;;;;19.70;68.40;;;;;;5003865;28;1355;-66
2023/11/16 03:26:52;;;;;;;;;;;19.70;68.40;;;;;;5001433;28;1339;-67
2023/11/16 03:29:17;;;;;;;;;;;19.70;68.40;;;;;;5007236;28;1235;-67
2023/11/16 03:31:44;;;;;;;;;;;19.70;68.40;;;;;;5004745;28;1415;-67
2023/11/16 03:34:09;;;;;;;;;;;19.70;68.40;;;;;;5003675;28;1965;-67
2023/11/16 03:36:35;;;;;;;;;;;19.70;68.40;;;;;;5003181;28;1345;-67
2023/11/16 03:39:00;;;;;;;;;;;19.70;68.40;;;;;;5002725;28;1355;-66
2023/11/16 03:41:26;;;;;;;;;;;19.70;68.40;;;;;;5002490;28;1465;-67
2023/11/16 03:43:52;;;;;;;;;;;19.70;68.40;;;;;;5004608;28;1460;-67
2023/11/16 03:46:17;;;;;;;;;;;19.70;68.40;;;;;;5003301;28;1461;-67
2023/11/16 03:48:42;;;;;;;;;;;19.70;68.40;;;;;;5008593;28;1834;-67
2023/11/16 03:51:08;;;;;;;;;;;19.70;68.40;;;;;;5003395;28;1884;-67
2023/11/16 03:53:34;;;;;;;;;;;19.70;68.40;;;;;;5005340;28;1906;-67
2023/11/16 03:56:00;;;;;;;;;;;19.70;68.40;;;;;;5009306;28;1598;-67
2023/11/16 03:58:25;;;;;;;;;;;19.60;68.40;;;;;;5003011;28;1361;-67
2023/11/16 04:00:52;;;;;;;;;;;19.70;68.40;;;;;;5002637;28;1323;-67
2023/11/16 04:03:17;;;;;;;;;;;19.60;68.40;;;;;;5002458;28;1261;-67
2023/11/16 04:05:43;;;;;;;;;;;19.60;68.40;;;;;;5005073;28;1276;-67
2023/11/16 04:08:08;;;;;;;;;;;19.70;68.40;;;;;;5002110;28;1367;-67
2023/11/16 04:10:34;;;;;;;;;;;19.70;68.40;;;;;;5006990;28;1213;-67
2023/11/16 04:12:59;;;;;;;;;;;19.60;68.40;;;;;;5002975;28;1895;-67
2023/11/16 04:15:26;;;;;;;;;;;19.60;68.40;;;;;;5003868;28;1341;-67
2023/11/16 04:17:52;;;;;;;;;;;19.60;68.40;;;;;;5006078;28;1254;-67
2023/11/16 04:20:19;;;;;;;;;;;19.60;68.40;;;;;;5004092;28;1301;-67
2023/11/16 04:22:44;;;;;;;;;;;19.60;68.40;;;;;;5005760;28;1249;-67
2023/11/16 04:25:22;;;;;;;;;;;19.70;68.50;;;;;;5002143;28;1590;-67
2023/11/16 04:27:48;;;;;;;;;;;19.60;68.40;;;;;;5001793;28;1236;-67
2023/11/16 04:30:16;;;;;;;;;;;19.60;68.40;;;;;;5008828;28;1260;-66
2023/11/16 04:32:45;;;;;;;;;;;19.60;68.40;;;;;;5003393;28;1906;-66
2023/11/16 04:35:10;;;;;;;;;;;19.60;68.40;;;;;;5004830;28;1367;-66
2023/11/16 04:37:39;;;;;;;;;;;19.60;68.40;;;;;;5006664;28;1301;-66
2023/11/16 04:40:13;;;;;;;;;;;19.60;68.40;;;;;;5003928;28;1384;-67
2023/11/16 04:42:41;;;;;;;;;;;19.70;68.50;;;;;;5004386;28;1388;-67
2023/11/16 04:45:11;;;;;;;;;;;19.60;68.40;;;;;;5000469;28;1438;-67
2023/11/16 04:47:40;;;;;;;;;;;19.60;68.40;;;;;;5003146;28;1463;-67
2023/11/16 04:50:06;;;;;;;;;;;19.60;68.40;;;;;;5002625;28;1289;-67
2023/11/16 04:52:34;;;;;;;;;;;19.60;68.40;;;;;;5001367;28;1902;-66
2023/11/16 04:55:00;;;;;;;;;;;19.60;68.40;;;;;;5005226;28;1363;-67
2023/11/16 04:57:26;;;;;;;;;;;19.60;68.40;;;;;;5000386;28;1622;-66
2023/11/16 04:59:53;;;;;;;;;;;19.60;68.40;;;;;;5001148;28;1310;-66
2023/11/16 05:02:18;;;;;;;;;;;19.60;68.40;;;;;;5008831;28;1546;-67
2023/11/16 05:04:44;;;;;;;;;;;19.60;68.50;;;;;;5003180;28;939;-67
2023/11/16 05:07:10;;;;;;;;;;;19.60;68.50;;;;;;5004971;28;1567;-67
2023/11/16 05:09:36;;;;;;;;;;;19.70;68.50;;;;;;5001400;28;884;-67
2023/11/16 05:12:02;;;;;;;;;;;19.60;68.50;;;;;;4983549;28;1961;-66
2023/11/16 05:14:27;;;;;;;;;;;19.60;68.50;;;;;;5003182;28;1326;-67
2023/11/16 05:16:53;;;;;;;;;;;19.60;68.50;;;;;;5006355;28;955;-67
2023/11/16 05:19:19;;;;;;;;;;;19.60;68.50;;;;;;5004695;28;931;-67
2023/11/16 05:21:45;;;;;;;;;;;19.60;68.50;;;;;;5002122;28;1260;-67
2023/11/16 05:24:10;;;;;;;;;;;19.60;68.50;;;;;;5003758;28;1822;-67
2023/11/16 05:26:39;;;;;;;;;;;19.60;68.50;;;;;;5003187;28;1142;-67
2023/11/16 05:29:04;;;;;;;;;;;19.60;68.50;;;;;;5003889;28;1256;-67
2023/11/16 05:31:30;;;;;;;;;;;19.60;68.50;;;;;;5002462;28;1493;-67
2023/11/16 05:33:55;;;;;;;;;;;19.60;68.50;;;;;;5003588;28;1894;-67
2023/11/16 05:36:21;;;;;;;;;;;19.60;68.50;;;;;;5019546;28;1476;-67
2023/11/16 05:38:47;;;;;;;;;;;19.60;68.50;;;;;;5006675;28;1176;-67
2023/11/16 05:41:13;;;;;;;;;;;19.60;68.50;;;;;;5005350;28;1944;-67
2023/11/16 05:43:39;;;;;;;;;;;19.60;68.50;;;;;;5002708;28;1273;-67
2023/11/16 05:46:05;;;;;;;;;;;19.60;68.50;;;;;;5003859;28;1471;-67
2023/11/16 05:48:31;;;;;;;;;;;19.60;68.50;;;;;;5003597;28;1271;-67
2023/11/16 05:50:57;;;;;;;;;;;19.60;68.60;;;;;;5002412;28;1700;-67
2023/11/16 05:53:23;;;;;;;;;;;19.60;68.50;;;;;;5018627;28;1910;-66
2023/11/16 05:55:48;;;;;;;;;;;19.60;68.50;;;;;;5004578;28;1274;-67
2023/11/16 05:58:14;;;;;;;;;;;19.60;68.60;;;;;;5003717;28;1105;-67
2023/11/16 06:00:39;;;;;;;;;;;19.60;68.50;;;;;;5005809;28;1268;-67
2023/11/16 06:03:05;;;;;;;;;;;19.60;68.50;;;;;;5001314;28;1472;-67
2023/11/16 06:05:30;;;;;;;;;;;19.60;68.50;;;;;;5002790;28;1614;-67
2023/11/16 06:07:56;;;;;;;;;;;19.60;68.50;;;;;;5002444;28;1396;-67
2023/11/16 06:10:21;;;;;;;;;;;19.60;68.60;;;;;;4999698;28;1318;-67
2023/11/16 06:12:47;;;;;;;;;;;19.60;68.50;;;;;;5002784;28;1961;-67
2023/11/16 06:15:14;;;;;;;;;;;19.60;68.50;;;;;;5005170;28;1549;-67
2023/11/16 06:17:41;;;;;;;;;;;19.60;68.50;;;;;;4997884;28;1105;-67
2023/11/16 06:20:09;;;;;;;;;;;19.60;68.50;;;;;;5002398;28;1400;-67
2023/11/16 06:22:35;;;;;;;;;;;19.60;68.40;;;;;;5001558;28;1960;-68
2023/11/16 06:25:04;;;;;;;;;;;19.60;69.10;;;;;;5004221;28;1991;-68
2023/11/16 06:27:30;;;;;;;;;;;19.70;68.40;;;;;;5001748;28;1501;-69
2023/11/16 06:29:55;;;;;;;;;;;19.70;68.40;;;;;;5001652;28;1123;-69
2023/11/16 06:32:21;;;;;;;;;;;19.70;68.30;;;;;;5004967;28;1894;-69
2023/11/16 06:34:47;;;;;;;;;;;19.70;68.20;;;;;;5002076;28;1379;-69
2023/11/16 06:37:15;;;;;;;;;;;19.70;68.10;;;;;;4996594;28;1518;-69
2023/11/16 06:39:41;;;;;;;;;;;19.80;68.00;;;;;;5014760;28;1172;-69
2023/11/16 06:42:06;;;;;;;;;;;19.80;68.00;;;;;;5001478;28;1300;-70
2023/11/16 06:44:32;;;;;;;;;;;19.80;67.90;;;;;;5005492;28;1309;-69
2023/11/16 06:46:58;;;;;;;;;;;19.80;67.80;;;;;;5003061;28;1215;-69
2023/11/16 06:49:26;;;;;;;;;;;19.80;67.70;;;;;;5000238;28;1507;-68
2023/11/16 06:51:52;;;;;;;;;;;19.90;68.40;;;;;;4999118;28;1294;-69
2023/11/16 06:54:18;;;;;;;;;;;19.90;67.60;;;;;;4999656;28;1903;-69
2023/11/16 06:56:43;;;;;;;;;;;19.90;67.50;;;;;;5005810;28;1190;-69
2023/11/16 06:59:12;;;;;;;;;;;19.90;67.50;;;;;;5004438;28;1621;-70
2023/11/16 07:01:39;;;;;;;;;;;19.90;67.40;;;;;;4987442;28;1484;-69
2023/11/16 07:04:05;;;;;;;;;;;19.90;67.30;;;;;;5005853;28;1371;-70
2023/11/16 07:06:31;;;;;;;;;;;20.00;67.30;;;;;;5002991;28;1492;-70
2023/11/16 07:08:56;;;;;;;;;;;20.00;67.30;;;;;;5001916;28;1642;-71
2023/11/16 07:11:22;;;;;;;;;;;20.00;67.20;;;;;;5009404;28;773;-69
2023/11/16 07:13:47;;;;;;;;;;;20.00;67.20;;;;;;5008276;28;1918;-69
2023/11/16 07:16:13;;;;;;;;;;;20.00;67.20;;;;;;5012448;28;1149;-69
2023/11/16 07:18:39;;;;;;;;;;;20.00;67.10;;;;;;5002201;28;1164;-69
2023/11/16 07:21:06;;;;;;;;;;;20.00;67.10;;;;;;5004840;28;1422;-68
2023/11/16 07:23:32;;;;;;;;;;;20.00;67.00;;;;;;5004064;28;1506;-69
2023/11/16 07:26:00;;;;;;;;;;;20.00;67.00;;;;;;5005235;28;1447;-68
2023/11/16 07:28:28;;;;;;;;;;;20.00;67.00;;;;;;5004757;28;1302;-69
2023/11/16 07:30:53;;;;;;;;;;;20.00;67.00;;;;;;5006907;28;1243;-68
2023/11/16 07:33:19;;;;;;;;;;;20.00;66.90;;;;;;5004623;28;1964;-68
2023/11/16 07:35:47;;;;;;;;;;;20.10;67.00;;;;;;5002318;28;1309;-68
2023/11/16 07:38:13;;;;;;;;;;;20.10;66.90;;;;;;5003886;28;1249;-69
2023/11/16 07:40:39;;;;;;;;;;;20.10;66.90;;;;;;5002932;28;1117;-68
2023/11/16 07:43:05;;;;;;;;;;;20.10;66.90;;;;;;5011793;28;1371;-68
2023/11/16 07:45:31;;;;;;;;;;;20.10;66.90;;;;;;5003547;28;1347;-68
2023/11/16 07:48:01;;;;;;;;;;;20.10;66.80;;;;;;5003250;28;1258;-68
2023/11/16 07:50:31;;;;;;;;;;;20.10;66.80;;;;;;5008327;28;1371;-67
2023/11/16 07:52:57;;;;;;;;;;;20.10;66.80;;;;;;5008789;28;2049;-68
2023/11/16 07:55:25;;;;;;;;;;;20.10;66.80;;;;;;5004511;28;1537;-68
2023/11/16 07:57:52;;;;;;;;;;;20.10;66.80;;;;;;5004703;28;947;-70
2023/11/16 08:00:31;;;;;;;;;;;20.10;66.80;;;;;;5015252;28;911;-71
2023/11/16 08:05:43;;;;;;;;;;;20.10;66.70;;;;;;5001951;28;1094;-69
2023/11/16 08:08:13;;;;;;;;;;;20.10;66.70;;;;;;5013622;28;828;-70
2023/11/16 08:10:44;;;;;;;;;;;20.10;66.70;;;;;;5000001;28;890;-70
2023/11/16 08:13:10;;;;;;;;;;;20.10;66.70;;;;;;5004326;28;1911;-70
2023/11/16 08:15:40;;;;;;;;;;;20.10;66.70;;;;;;5007388;28;1094;-72
2023/11/16 08:18:07;;;;;;;;;;;20.10;66.70;;;;;;5013905;28;1231;-69
2023/11/16 08:20:32;;;;;;;;;;;20.10;66.70;;;;;;5006304;28;874;-72
2023/11/16 08:22:58;;;;;;;;;;;20.10;66.70;;;;;;5004235;28;1249;-70
2023/11/16 08:25:23;;;;;;;;;;;20.10;66.70;;;;;;5022048;28;991;-70
2023/11/16 08:27:49;;;;;;;;;;;20.10;66.70;;;;;;5003923;28;901;-70
2023/11/16 08:30:16;;;;;;;;;;;20.10;66.70;;;;;;5008936;28;828;-70
2023/11/16 08:32:42;;;;;;;;;;;20.10;66.70;;;;;;5003660;28;1910;-70
2023/11/16 08:35:08;;;;;;;;;;;20.10;66.80;;;;;;5006659;28;1210;-70
2023/11/16 08:37:34;;;;;;;;;;;20.10;66.80;;;;;;5015004;28;1259;-70
2023/11/16 08:39:59;;;;;;;;;;;20.10;66.80;;;;;;5013099;28;1113;-70
2023/11/16 08:42:25;;;;;;;;;;;20.10;66.80;;;;;;5014250;28;1363;-70
2023/11/16 08:44:50;;;;;;;;;;;20.10;66.80;;;;;;5014219;28;1169;-70
2023/11/16 08:47:18;;;;;;;;;;;20.10;66.90;;;;;;5010662;28;1342;-70
2023/11/16 08:49:43;;;;;;;;;;;20.10;66.90;;;;;;5013034;28;1462;-70
2023/11/16 08:52:10;;;;;;;;;;;20.10;66.90;;;;;;5013386;28;1902;-70
2023/11/16 08:54:36;;;;;;;;;;;20.10;67.00;;;;;;5001052;28;900;-70
2023/11/16 08:57:02;;;;;;;;;;;20.00;66.90;;;;;;5004981;28;1501;-70
2023/11/16 08:59:28;;;;;;;;;;;20.00;67.00;;;;;;5021531;28;1339;-70
2023/11/16 09:01:56;;;;;;;;;;;20.00;67.00;;;;;;5008875;28;1358;-71
2023/11/16 09:04:23;;;;;;;;;;;20.00;67.00;;;;;;5018909;28;1316;-71
2023/11/16 09:06:50;;;;;;;;;;;20.00;67.00;;;;;;5002631;28;1539;-71
2023/11/16 09:09:35;;;;;;;;;;;20.00;67.00;;;;;;5001966;28;1617;-71
2023/11/16 09:12:07;;;;;;;;;;;20.00;67.00;;;;;;5003583;28;1259;-70
2023/11/16 09:14:34;;;;;;;;;;;20.00;67.00;;;;;;4999605;28;1509;-68
2023/11/16 09:17:02;;;;;;;;;;;20.00;67.00;;;;;;5002542;28;1530;-68
2023/11/16 09:19:28;;;;;;;;;;;20.00;67.00;;;;;;5005751;28;1594;-68
2023/11/16 09:21:54;;;;;;;;;;;20.00;67.00;;;;;;5000658;28;1459;-68
2023/11/16 09:24:21;;;;;;;;;;;20.00;67.00;;;;;;5007835;28;1462;-67
2023/11/16 09:26:48;;;;;;;;;;;20.10;67.00;;;;;;5002983;28;1471;-68
2023/11/16 09:29:15;;;;;;;;;;;20.00;66.90;;;;;;5004717;28;1617;-68
2023/11/16 09:31:43;;;;;;;;;;;20.10;66.90;;;;;;5002722;28;1243;-69
2023/11/16 09:34:10;;;;;;;;;;;20.10;66.90;;;;;;5003390;28;2009;-69
2023/11/16 09:36:37;;;;;;;;;;;20.10;66.90;;;;;;5002915;28;1246;-68
2023/11/16 09:39:07;;;;;;;;;;;20.10;66.80;;;;;;5000562;28;1577;-67
2023/11/16 09:41:33;;;;;;;;;;;20.10;66.80;;;;;;5003258;28;1264;-68
2023/11/16 09:44:01;;;;;;;;;;;20.10;66.70;;;;;;5003916;28;2212;-69
2023/11/16 09:46:26;;;;;;;;;;;20.10;66.70;;;;;;5006655;28;2303;-67
2023/11/16 09:48:53;;;;;;;;;;;20.10;66.70;;;;;;4999835;28;1371;-69
2023/11/16 09:51:19;;;;;;;;;;;20.10;66.70;;;;;;5017967;28;1513;-68
2023/11/16 09:53:46;;;;;;;;;;;20.10;66.70;;;;;;4999422;28;1910;-68
2023/11/16 09:56:11;;;;;;;;;;;20.10;66.70;;;;;;5017196;28;1440;-68
2023/11/16 09:58:39;;;;;;;;;;;20.10;66.70;;;;;;5000388;28;1309;-68
2023/11/16 10:01:10;;;;;;;;;;;20.10;66.70;;;;;;5001644;28;1236;-67
2023/11/16 10:03:36;;;;;;;;;;;20.10;66.70;;;;;;5003134;28;1505;-67
2023/11/16 10:06:04;;;;;;;;;;;20.10;66.80;;;;;;5001995;28;1313;-67
2023/11/16 10:08:33;;;;;;;;;;;20.10;66.80;;;;;;5005194;28;877;-68
2023/11/16 10:11:05;;;;;;;;;;;20.10;66.80;;;;;;5005453;28;1264;-68
2023/11/16 10:13:31;;;;;;;;;;;20.10;66.80;;;;;;5004024;28;1981;-67
2023/11/16 10:16:03;;;;;;;;;;;20.10;66.90;;;;;;5021518;28;1451;-67
2023/11/16 10:18:29;;;;;;;;;;;20.10;66.90;;;;;;4999885;28;908;-67
2023/11/16 10:20:54;;;;;;;;;;;20.00;66.90;;;;;;4989802;28;1209;-67
2023/11/16 10:23:20;;;;;;;;;;;20.00;66.90;;;;;;5003316;28;1370;-67
2023/11/16 10:25:48;;;;;;;;;;;20.00;66.90;;;;;;5001825;28;1322;-67
2023/11/16 10:28:20;;;;;;;;;;;20.00;66.90;;;;;;5001017;28;1596;-67
2023/11/16 10:30:47;;;;;;;;;;;20.00;67.00;;;;;;5001486;28;1180;-67
2023/11/16 10:33:16;;;;;;;;;;;20.00;67.00;;;;;;5000590;28;1977;-67
2023/11/16 10:35:43;;;;;;;;;;;20.00;67.00;;;;;;5002556;28;1265;-67
2023/11/16 10:38:10;;;;;;;;;;;20.00;67.00;;;;;;5004045;28;1441;-67
2023/11/16 10:40:37;;;;;;;;;;;20.00;67.00;;;;;;4982307;28;1457;-68
2023/11/16 10:43:03;;;;;;;;;;;20.00;67.00;;;;;;5007922;28;1300;-68
2023/11/16 10:45:29;;;;;;;;;;;20.00;67.00;;;;;;5004900;28;1157;-67
2023/11/16 10:47:55;;;;;;;;;;;20.10;67.00;;;;;;4999281;28;1067;-67
2023/11/16 10:50:22;;;;;;;;;;;20.00;67.60;;;;;;5004301;28;886;-68
2023/11/16 10:52:48;;;;;;;;;;;20.10;67.00;;;;;;5002964;28;1898;-67
2023/11/16 10:55:16;;;;;;;;;;;20.10;66.90;;;;;;5002716;28;1906;-68
2023/11/16 10:57:48;;;;;;;;;;;20.10;66.90;;;;;;5003165;28;1393;-68
2023/11/16 11:00:16;;;;;;;;;;;20.10;66.90;;;;;;5005778;28;1425;-67
2023/11/16 11:02:45;;;;;;;;;;;20.10;66.80;;;;;;5007286;28;1386;-67
2023/11/16 11:05:11;;;;;;;;;;;20.10;66.80;;;;;;5001173;28;1536;-67
2023/11/16 11:07:45;;;;;;;;;;;20.10;66.80;;;;;;4997798;28;1235;-67
2023/11/16 11:10:12;;;;;;;;;;;20.10;66.80;;;;;;5001675;28;1123;-68
2023/11/16 11:12:41;;;;;;;;;;;20.10;66.70;;;;;;5003074;28;1981;-67
2023/11/16 11:15:11;;;;;;;;;;;20.10;66.70;;;;;;5002116;28;1387;-67
2023/11/16 11:17:40;;;;;;;;;;;20.10;66.70;;;;;;5000603;28;1440;-67
2023/11/16 11:20:09;;;;;;;;;;;20.10;66.70;;;;;;5007126;28;1330;-67
2023/11/16 11:22:36;;;;;;;;;;;20.10;66.70;;;;;;5002067;28;1379;-68
2023/11/16 11:25:05;;;;;;;;;;;20.20;66.70;;;;;;5002364;28;1577;-68
2023/11/16 11:27:31;;;;;;;;;;;20.10;66.60;;;;;;5019876;28;2451;-68
2023/11/16 11:30:06;;;;;;;;;;;20.10;66.60;;;;;;5008413;28;1411;-68
2023/11/16 11:32:32;;;;;;;;;;;20.20;66.60;;;;;;5018628;28;1939;-68
2023/11/16 11:34:57;;;;;;;;;;;20.20;66.60;;;;;;5004236;28;1367;-69
2023/11/16 11:37:34;;;;;;;;;;;20.20;66.60;;;;;;5016704;28;1595;-68
2023/11/16 11:40:00;;;;;;;;;;;20.20;66.50;;;;;;5005583;28;1225;-68
2023/11/16 11:42:32;;;;;;;;;;;20.20;66.50;;;;;;5002093;28;1397;-67
2023/11/16 11:44:58;;;;;;;;;;;20.20;66.50;;;;;;5005320;28;943;-68
2023/11/16 11:47:28;;;;;;;;;;;20.20;66.50;;;;;;5009889;28;1115;-68
2023/11/16 11:49:54;;;;;;;;;;;20.20;66.50;;;;;;5000991;28;1181;-68
2023/11/16 11:52:20;;;;;;;;;;;20.20;66.50;;;;;;5009088;28;1955;-68
2023/11/16 11:54:45;;;;;;;;;;;20.20;66.50;;;;;;5022817;28;1149;-67
2023/11/16 11:57:11;;;;;;;;;;;20.20;66.50;;;;;;5008539;28;1395;-67
2023/11/16 11:59:36;;;;;;;;;;;20.20;66.50;;;;;;5005148;28;1018;-67
2023/11/16 12:02:03;;;;;;;;;;;20.20;66.40;;;;;;5007757;28;1209;-67
2023/11/16 12:04:32;;;;;;;;;;;20.20;66.40;;;;;;5005452;28;1177;-67
2023/11/16 12:07:03;;;;;;;;;;;20.20;66.40;;;;;;5007506;28;1346;-67
2023/11/16 12:09:31;;;;;;;;;;;20.20;66.40;;;;;;5003945;28;1410;-67
2023/11/16 12:11:56;;;;;;;;;;;20.20;66.40;;;;;;5004187;28;1236;-67
2023/11/16 12:14:25;;;;;;;;;;;20.20;66.30;;;;;;5022638;28;1914;-67
2023/11/16 12:16:51;;;;;;;;;;;20.20;66.30;;;;;;5001199;28;1003;-67
2023/11/16 12:19:21;;;;;;;;;;;20.30;66.30;;;;;;5009568;28;860;-67
2023/11/16 12:21:47;;;;;;;;;;;20.30;66.30;;;;;;5006704;28;1441;-67
2023/11/16 12:24:14;;;;;;;;;;;20.30;66.20;;;;;;5008848;28;1268;-67
2023/11/16 12:26:39;;;;;;;;;;;20.30;66.20;;;;;;5009774;28;1456;-67
2023/11/16 12:29:15;;;;;;;;;;;20.30;66.20;;;;;;5009547;28;1301;-67
2023/11/16 12:31:40;;;;;;;;;;;20.30;66.10;;;;;;5006568;28;1356;-67
2023/11/16 12:34:06;;;;;;;;;;;20.30;66.10;;;;;;5004692;28;1906;-67
2023/11/16 12:36:34;;;;;;;;;;;20.30;66.20;;;;;;5018877;28;1087;-68
2023/11/16 12:38:59;;;;;;;;;;;20.30;66.20;;;;;;5006208;28;1286;-67
2023/11/16 12:41:24;;;;;;;;;;;20.30;66.20;;;;;;5008281;28;1422;-67
2023/11/16 12:43:50;;;;;;;;;;;20.30;66.20;;;;;;5003851;28;1303;-67
2023/11/16 12:46:16;;;;;;;;;;;20.30;66.20;;;;;;5007116;28;1228;-67
2023/11/16 12:48:42;;;;;;;;;;;20.30;66.20;;;;;;5007358;28;1362;-67
2023/11/16 12:51:08;;;;;;;;;;;20.30;66.20;;;;;;5006452;28;1130;-67
2023/11/16 12:53:38;;;;;;;;;;;20.30;66.40;;;;;;5006477;28;1910;-68
2023/11/16 12:56:05;;;;;;;;;;;20.20;66.20;;;;;;5005670;28;999;-67
2023/11/16 12:58:33;;;;;;;;;;;20.30;66.30;;;;;;5003512;28;1229;-67
2023/11/16 13:00:58;;;;;;;;;;;20.30;66.40;;;;;;5007388;28;1299;-67
2023/11/16 13:03:27;;;;;;;;;;;20.20;66.40;;;;;;5016777;28;1312;-67
2023/11/16 13:05:52;;;;;;;;;;;20.20;66.40;;;;;;5008210;28;1375;-67
2023/11/16 13:08:19;;;;;;;;;;;20.20;66.40;;;;;;5006464;28;1427;-67
2023/11/16 13:10:45;;;;;;;;;;;20.20;66.40;;;;;;5006124;28;1162;-68
2023/11/16 13:13:10;;;;;;;;;;;20.20;66.50;;;;;;5006175;28;1988;-68
2023/11/16 13:15:38;;;;;;;;;;;20.20;66.50;;;;;;5003019;28;1342;-67
2023/11/16 13:18:03;;;;;;;;;;;20.20;66.50;;;;;;5005780;28;867;-67
2023/11/16 13:20:29;;;;;;;;;;;20.20;66.60;;;;;;5004402;28;1524;-67
2023/11/16 13:22:54;;;;;;;;;;;20.20;66.60;;;;;;5002998;28;1379;-67
2023/11/16 13:25:21;;;;;;;;;;;20.20;66.60;;;;;;5001851;28;1300;-67
2023/11/16 13:27:46;;;;;;;;;;;20.20;66.60;;;;;;5005523;28;1241;-68
2023/11/16 13:30:12;;;;;;;;;;;20.20;66.60;;;;;;5001618;28;1414;-67
2023/11/16 13:32:41;;;;;;;;;;;20.20;66.60;;;;;;5006244;28;1969;-67
2023/11/16 13:35:07;;;;;;;;;;;20.20;66.60;;;;;;5000383;28;1228;-67
2023/11/16 13:37:33;;;;;;;;;;;20.20;67.40;;;;;;5017810;28;1235;-68
2023/11/16 13:39:59;;;;;;;;;;;20.20;66.60;;;;;;5003377;28;1360;-67
2023/11/16 13:42:24;;;;;;;;;;;20.20;66.50;;;;;;5003311;28;1516;-67
2023/11/16 13:44:50;;;;;;;;;;;20.20;66.50;;;;;;5006958;28;1065;-67
2023/11/16 13:47:15;;;;;;;;;;;20.20;66.50;;;;;;5000477;28;1256;-68
2023/11/16 13:49:42;;;;;;;;;;;20.20;66.50;;;;;;5004600;28;923;-68
2023/11/16 13:52:07;;;;;;;;;;;20.20;66.50;;;;;;5004377;28;1586;-67
2023/11/16 13:54:33;;;;;;;;;;;20.20;66.50;;;;;;5003329;28;1906;-67
2023/11/16 13:56:58;;;;;;;;;;;20.20;66.50;;;;;;5000809;28;1565;-67
2023/11/16 13:59:24;;;;;;;;;;;20.20;66.50;;;;;;5001048;28;1374;-67
2023/11/16 14:01:49;;;;;;;;;;;20.20;66.50;;;;;;5007093;28;1316;-68
2023/11/16 14:04:15;;;;;;;;;;;20.20;66.50;;;;;;5006202;28;1371;-67
2023/11/16 14:06:40;;;;;;;;;;;20.20;66.50;;;;;;5003704;28;1354;-68
2023/11/16 14:09:10;;;;;;;;;;;20.20;66.40;;;;;;5008604;28;1497;-68
2023/11/16 14:11:38;;;;;;;;;;;20.20;66.50;;;;;;5001950;28;920;-67
2023/11/16 14:14:04;;;;;;;;;;;20.20;66.40;;;;;;4998642;28;2033;-68
2023/11/16 14:16:30;;;;;;;;;;;20.20;66.40;;;;;;5004257;28;1210;-68
2023/11/16 14:18:56;;;;;;;;;;;20.20;66.40;;;;;;5008102;28;1319;-67
2023/11/16 14:21:22;;;;;;;;;;;20.20;66.40;;;;;;5002191;28;1260;-67
2023/11/16 14:23:48;;;;;;;;;;;20.20;66.50;;;;;;5002876;28;1242;-67
2023/11/16 14:26:13;;;;;;;;;;;20.20;66.40;;;;;;5004972;28;1061;-67
2023/11/16 14:28:39;;;;;;;;;;;20.20;66.40;;;;;;5008044;28;1355;-67
2023/11/16 14:31:05;;;;;;;;;;;20.20;66.40;;;;;;5003885;28;1360;-68